createdAt,value
2019-02-27T00:00:11.480Z,29.40
2019-02-27T00:02:43.364Z,27.07
2019-02-27T00:05:14.686Z,28.10
2019-02-27T00:07:45.978Z,31.30
2019-02-27T00:10:17.431Z,25.20
2019-02-27T00:12:51.773Z,30.17
2019-02-27T00:15:42.970Z,23.27
2019-02-27T00:18:14.425Z,32.60
2019-02-27T00:20:53.363Z,29.90
2019-02-27T00:23:24.682Z,24.50
2019-02-27T00:25:56.001Z,31.73
2019-02-27T00:28:27.351Z,26.90
2019-02-27T00:30:58.587Z,27.10
2019-02-27T00:33:29.838Z,27.50
2019-02-27T00:36:01.117Z,30.33
2019-02-27T00:38:32.399Z,24.10
2019-02-27T00:41:03.684Z,22.90
2019-02-27T00:43:53.889Z,28.77
2019-02-27T00:46:46.435Z,28.17
2019-02-27T00:49:17.338Z,32.00
2019-02-27T00:51:48.678Z,33.10
2019-02-27T00:54:20.003Z,22.47
2019-02-27T00:56:51.446Z,27.93
2019-02-27T00:59:22.782Z,26.93
2019-02-27T01:01:54.139Z,27.07
2019-02-27T01:04:25.451Z,27.70
2019-02-27T01:06:56.773Z,23.90
2019-02-27T01:09:28.141Z,27.20
2019-02-27T01:11:59.458Z,22.93
2019-02-27T01:14:30.798Z,27.50
2019-02-27T01:17:02.045Z,26.33
2019-02-27T01:19:38.504Z,26.67
2019-02-27T01:22:06.211Z,24.73
2019-02-27T01:24:37.623Z,23.27
2019-02-27T01:27:09.067Z,29.13
2019-02-27T01:29:40.369Z,24.83
2019-02-27T01:32:11.765Z,25.90
2019-02-27T01:34:44.435Z,26.90
2019-02-27T01:37:16.105Z,27.97
2019-02-27T01:39:47.386Z,26.43
2019-02-27T01:42:18.684Z,24.50
2019-02-27T01:44:49.913Z,25.43
2019-02-27T01:47:22.340Z,28.50
2019-02-27T01:50:35.064Z,28.00
2019-02-27T01:53:08.111Z,30.30
2019-02-27T01:55:39.601Z,26.33
2019-02-27T01:58:10.938Z,29.23
2019-02-27T02:00:42.611Z,28.67
2019-02-27T02:03:14.359Z,30.03
2019-02-27T02:05:45.633Z,25.53
2019-02-27T02:08:16.968Z,28.17
2019-02-27T02:10:48.250Z,28.53
2019-02-27T02:13:57.995Z,27.47
2019-02-27T02:17:29.789Z,32.20
2019-02-27T02:20:44.960Z,26.03
2019-02-27T02:24:04.935Z,30.57
2019-02-27T02:28:02.564Z,25.90
2019-02-27T02:31:32.703Z,25.60
2019-02-27T02:34:49.542Z,30.00
2019-02-27T02:38:15.214Z,21.20
2019-02-27T02:41:46.685Z,20.57
2019-02-27T02:44:31.946Z,22.83
2019-02-27T02:48:01.293Z,35.40
2019-02-27T02:51:18.017Z,34.83
2019-02-27T02:54:55.097Z,29.47
2019-02-27T02:58:15.987Z,26.57
2019-02-27T03:01:04.327Z,28.87
2019-02-27T03:05:02.363Z,29.43
2019-02-27T03:08:28.658Z,28.53
2019-02-27T03:11:54.860Z,26.20
2019-02-27T03:15:19.839Z,32.83
2019-02-27T03:19:05.031Z,33.33
2019-02-27T03:22:47.896Z,31.07
2019-02-27T03:25:58.387Z,33.70
2019-02-27T03:29:30.998Z,32.80
2019-02-27T03:32:54.960Z,28.37
2019-02-27T03:36:26.322Z,28.50
2019-02-27T03:39:48.074Z,28.57
2019-02-27T03:42:49.913Z,31.20
2019-02-27T03:45:41.681Z,27.80
2019-02-27T03:49:11.986Z,32.50
2019-02-27T03:52:13.714Z,25.37
2019-02-27T03:55:32.860Z,24.80
2019-02-27T03:58:43.882Z,25.60
2019-02-27T04:02:31.910Z,27.77
2019-02-27T04:05:07.124Z,25.20
2019-02-27T04:08:40.335Z,27.70
2019-02-27T04:11:09.460Z,36.07
2019-02-27T04:13:40.868Z,29.00
2019-02-27T04:16:12.382Z,32.27
2019-02-27T04:18:40.902Z,44.03
2019-02-27T04:21:12.616Z,27.00
2019-02-27T04:23:47.940Z,27.17
2019-02-27T04:26:19.340Z,30.37
2019-02-27T04:28:50.020Z,28.17
2019-02-27T04:31:21.355Z,31.27
2019-02-27T04:33:52.887Z,27.50
2019-02-27T04:36:24.300Z,29.40
2019-02-27T04:38:55.536Z,31.63
2019-02-27T04:41:27.032Z,33.60
2019-02-27T04:43:58.374Z,29.00
2019-02-27T04:46:29.884Z,27.77
2019-02-27T04:49:03.884Z,33.67
2019-02-27T04:51:35.610Z,32.27
2019-02-27T04:54:07.557Z,33.87
2019-02-27T04:56:39.027Z,30.60
2019-02-27T04:59:10.365Z,29.80
2019-02-27T05:01:41.748Z,37.10
2019-02-27T05:04:13.145Z,38.70
2019-02-27T05:06:46.853Z,37.07
2019-02-27T05:09:17.713Z,39.33
2019-02-27T05:12:08.475Z,44.60
2019-02-27T05:14:39.759Z,35.00
2019-02-27T05:17:11.067Z,39.20
2019-02-27T05:19:42.376Z,37.03
2019-02-27T05:22:13.554Z,33.97
2019-02-27T05:24:44.943Z,30.87
2019-02-27T05:27:16.496Z,31.40
2019-02-27T05:29:47.799Z,43.87
2019-02-27T05:32:19.151Z,33.97
2019-02-27T05:34:50.599Z,37.97
2019-02-27T05:37:22.070Z,40.97
2019-02-27T05:39:53.464Z,31.70
2019-02-27T05:42:24.860Z,30.60
2019-02-27T05:44:56.753Z,33.33
2019-02-27T05:47:28.220Z,34.20
2019-02-27T05:50:00.676Z,36.93
2019-02-27T05:52:32.985Z,37.03
2019-02-27T05:55:06.420Z,38.87
2019-02-27T05:57:37.746Z,31.17
2019-02-27T06:00:14.204Z,29.90
2019-02-27T06:02:45.718Z,34.77
2019-02-27T06:05:17.310Z,31.17
2019-02-27T06:07:48.657Z,32.63
2019-02-27T06:10:20.863Z,33.80
2019-02-27T06:12:53.213Z,31.97
2019-02-27T06:15:26.100Z,32.13
2019-02-27T06:18:22.459Z,35.07
2019-02-27T06:20:52.067Z,35.77
2019-02-27T06:23:23.289Z,30.87
2019-02-27T06:25:59.050Z,30.37
2019-02-27T06:28:27.632Z,33.53
2019-02-27T06:30:58.964Z,28.17
2019-02-27T06:33:30.475Z,40.23
2019-02-27T06:36:01.813Z,37.80
2019-02-27T06:38:33.131Z,42.50
2019-02-27T06:41:04.579Z,51.67
2019-02-27T06:43:35.832Z,40.73
2019-02-27T06:46:07.117Z,42.93
2019-02-27T06:48:42.986Z,38.03
2019-02-27T06:51:11.612Z,37.23
2019-02-27T06:53:47.916Z,29.10
2019-02-27T06:56:19.304Z,35.07
2019-02-27T06:58:50.733Z,37.40
2019-02-27T07:01:22.103Z,32.63
2019-02-27T07:03:53.457Z,31.20
2019-02-27T07:06:24.853Z,33.10
2019-02-27T07:08:56.123Z,34.40
2019-02-27T07:11:27.529Z,31.63
2019-02-27T07:13:58.875Z,36.13
2019-02-27T07:16:30.186Z,31.03
2019-02-27T07:19:01.509Z,28.30
2019-02-27T07:21:33.582Z,31.07
2019-02-27T07:24:42.814Z,36.53
2019-02-27T07:27:14.087Z,29.00
2019-02-27T07:29:45.333Z,24.10
2019-02-27T07:32:16.650Z,25.67
2019-02-27T07:34:49.734Z,18.60
2019-02-27T07:37:20.889Z,22.93
2019-02-27T07:39:52.267Z,21.50
2019-02-27T07:42:23.527Z,19.27
2019-02-27T07:44:54.805Z,24.40
2019-02-27T07:47:26.138Z,19.37
2019-02-27T07:49:57.473Z,21.97
2019-02-27T07:52:32.255Z,18.03
2019-02-27T07:55:01.665Z,22.10
2019-02-27T07:57:32.862Z,18.63
2019-02-27T08:00:04.507Z,19.87
2019-02-27T08:02:36.220Z,25.70
2019-02-27T08:05:08.392Z,21.43
2019-02-27T08:07:39.731Z,24.30
2019-02-27T08:10:15.137Z,19.17
2019-02-27T08:12:46.327Z,22.50
2019-02-27T08:15:18.716Z,15.60
2019-02-27T08:17:50.054Z,20.90
2019-02-27T08:20:21.360Z,16.83
2019-02-27T08:22:55.525Z,16.00
2019-02-27T08:25:26.823Z,17.73
2019-02-27T08:27:58.130Z,17.00
2019-02-27T08:30:38.203Z,17.10
2019-02-27T08:33:09.514Z,14.67
2019-02-27T08:35:40.995Z,14.97
2019-02-27T08:38:12.283Z,13.60
2019-02-27T08:40:43.633Z,16.13
2019-02-27T08:43:14.973Z,16.43
2019-02-27T08:45:46.200Z,14.70
2019-02-27T08:48:18.116Z,16.07
2019-02-27T08:50:49.409Z,16.50
2019-02-27T08:53:26.049Z,14.73
2019-02-27T08:55:53.623Z,17.33
2019-02-27T08:58:26.739Z,18.40
2019-02-27T09:00:58.208Z,16.00
2019-02-27T09:03:29.663Z,16.93
2019-02-27T09:06:01.304Z,16.90
2019-02-27T09:08:32.737Z,16.90
2019-02-27T09:11:06.542Z,20.33
2019-02-27T09:13:37.609Z,17.63
2019-02-27T09:16:08.961Z,18.00
2019-02-27T09:18:40.294Z,15.70
2019-02-27T09:21:11.698Z,20.30
2019-02-27T09:23:45.187Z,23.30
2019-02-27T09:26:16.638Z,16.93
2019-02-27T09:28:48.421Z,20.77
2019-02-27T09:31:19.857Z,19.30
2019-02-27T09:33:53.326Z,17.53
2019-02-27T09:36:30.914Z,15.80
2019-02-27T09:39:02.330Z,15.80
2019-02-27T09:41:33.977Z,18.37
2019-02-27T09:44:05.378Z,23.53
2019-02-27T09:46:36.783Z,16.70
2019-02-27T09:49:08.706Z,17.23
2019-02-27T09:51:40.559Z,15.27
2019-02-27T09:54:13.282Z,12.73
2019-02-27T09:56:45.023Z,16.43
2019-02-27T09:59:19.784Z,16.03
2019-02-27T10:01:51.392Z,14.17
2019-02-27T10:04:22.933Z,13.43
2019-02-27T10:06:58.238Z,14.97
2019-02-27T10:09:29.843Z,13.70
2019-02-27T10:12:01.289Z,15.00
2019-02-27T10:14:32.797Z,19.77
2019-02-27T10:17:06.729Z,14.07
2019-02-27T10:19:37.554Z,14.60
2019-02-27T10:22:08.935Z,10.80
2019-02-27T10:24:40.418Z,14.73
2019-02-27T10:27:11.854Z,12.60
2019-02-27T10:29:47.591Z,9.60
2019-02-27T10:32:17.415Z,8.83
2019-02-27T10:34:50.995Z,11.30
2019-02-27T10:37:22.530Z,10.50
2019-02-27T10:39:53.938Z,9.53
2019-02-27T10:42:44.477Z,9.57
2019-02-27T10:45:16.247Z,11.70
2019-02-27T10:47:47.795Z,15.43
2019-02-27T10:50:19.348Z,10.07
2019-02-27T10:52:50.850Z,12.27
2019-02-27T10:55:22.576Z,11.00
2019-02-27T10:57:54.163Z,8.70
2019-02-27T11:00:30.373Z,11.60
2019-02-27T11:03:02.085Z,9.93
2019-02-27T11:05:34.590Z,7.53
2019-02-27T11:08:10.293Z,11.57
2019-02-27T11:10:41.673Z,9.47
2019-02-27T11:13:13.555Z,10.53
2019-02-27T11:15:45.567Z,10.67
2019-02-27T11:18:17.060Z,8.40
2019-02-27T11:20:48.743Z,8.37
2019-02-27T11:23:20.113Z,11.20
2019-02-27T11:25:56.530Z,11.93
2019-02-27T11:28:24.338Z,8.50
2019-02-27T11:30:55.862Z,8.87
2019-02-27T11:33:27.158Z,8.10
2019-02-27T11:35:58.504Z,6.77
2019-02-27T11:38:29.791Z,10.90
2019-02-27T11:41:01.129Z,8.80
2019-02-27T11:43:32.681Z,10.30
2019-02-27T11:46:07.243Z,9.70
2019-02-27T11:48:38.666Z,13.97
2019-02-27T11:51:10.025Z,6.53
2019-02-27T11:53:41.478Z,12.17
2019-02-27T11:56:13.032Z,8.40
2019-02-27T11:58:44.348Z,5.40
2019-02-27T12:01:15.651Z,7.03
2019-02-27T12:03:46.995Z,9.60
2019-02-27T12:06:18.437Z,8.20
2019-02-27T12:08:49.882Z,8.87
2019-02-27T12:11:21.468Z,6.10
2019-02-27T12:13:54.751Z,9.60
2019-02-27T12:16:25.857Z,7.17
2019-02-27T12:18:57.207Z,6.13
2019-02-27T12:21:28.643Z,5.90
2019-02-27T12:23:59.978Z,7.60
2019-02-27T12:26:31.343Z,8.57
2019-02-27T12:29:02.636Z,9.97
2019-02-27T12:31:34.361Z,9.77
2019-02-27T12:34:06.122Z,8.97
2019-02-27T12:36:37.430Z,7.60
2019-02-27T12:39:09.596Z,9.07
2019-02-27T12:41:40.941Z,8.07
2019-02-27T12:44:12.399Z,6.80
2019-02-27T12:46:43.953Z,14.00
2019-02-27T12:49:16.931Z,7.40
2019-02-27T12:51:48.337Z,6.47
2019-02-27T12:54:19.759Z,5.40
2019-02-27T12:57:10.149Z,7.40
2019-02-27T12:59:41.590Z,5.90
2019-02-27T13:02:12.996Z,6.37
2019-02-27T13:04:44.484Z,6.27
2019-02-27T13:07:16.034Z,7.00
2019-02-27T13:09:47.362Z,8.37
2019-02-27T13:12:18.806Z,3.00
2019-02-27T13:14:50.091Z,5.40
2019-02-27T13:17:22.260Z,2.70
2019-02-27T13:19:53.664Z,4.53
2019-02-27T13:22:26.281Z,3.60
2019-02-27T13:24:58.112Z,3.33
2019-02-27T13:27:29.400Z,4.97
2019-02-27T13:30:22.295Z,7.50
2019-02-27T13:34:05.442Z,5.47
2019-02-27T13:48:54.253Z,8.33
2019-02-27T13:51:25.568Z,9.00
2019-02-27T13:54:00.205Z,9.47
2019-02-27T13:56:29.977Z,10.40
2019-02-27T13:59:20.478Z,13.20
2019-02-27T14:01:51.954Z,11.23
2019-02-27T14:04:23.392Z,9.73
2019-02-27T14:06:54.816Z,10.30
2019-02-27T14:09:26.230Z,8.20
2019-02-27T14:11:58.710Z,8.53
2019-02-27T14:14:30.656Z,11.50
2019-02-27T14:17:01.943Z,7.90
2019-02-27T14:19:33.311Z,8.50
2019-02-27T14:22:07.159Z,6.83
2019-02-27T14:24:42.168Z,8.50
2019-02-27T14:27:14.619Z,7.43
2019-02-27T14:29:53.439Z,5.97
2019-02-27T14:32:25.082Z,6.50
2019-02-27T14:34:58.034Z,5.97
2019-02-27T14:37:29.402Z,9.70
2019-02-27T14:40:03.884Z,7.30
2019-02-27T14:42:33.597Z,6.13
2019-02-27T14:45:06.416Z,8.80
2019-02-27T14:47:38.879Z,8.60
2019-02-27T14:50:13.983Z,6.40
2019-02-27T14:52:45.797Z,5.10
2019-02-27T14:55:18.249Z,7.27
2019-02-27T14:57:51.354Z,12.70
2019-02-27T15:00:29.073Z,8.60
2019-02-27T15:03:22.457Z,7.43
2019-02-27T15:05:54.237Z,8.60
2019-02-27T15:08:26.040Z,8.33
2019-02-27T15:10:57.311Z,8.70
2019-02-27T15:13:28.996Z,5.77
2019-02-27T15:16:00.340Z,9.80
2019-02-27T15:18:31.777Z,7.33
2019-02-27T15:21:03.168Z,7.10
2019-02-27T15:23:34.526Z,8.00
2019-02-27T15:26:05.904Z,12.63
2019-02-27T15:28:37.263Z,9.63
2019-02-27T15:31:08.833Z,9.27
2019-02-27T15:33:45.619Z,7.77
2019-02-27T15:36:17.004Z,8.60
2019-02-27T15:38:48.708Z,12.67
2019-02-27T15:41:20.251Z,11.00
2019-02-27T15:43:59.755Z,6.77
2019-02-27T15:46:24.528Z,9.10
2019-02-27T15:48:55.865Z,16.27
2019-02-27T15:51:28.469Z,9.90
2019-02-27T15:54:00.124Z,7.53
2019-02-27T15:56:31.621Z,12.07
2019-02-27T15:59:06.219Z,10.03
2019-02-27T16:01:35.794Z,10.00
2019-02-27T16:04:07.486Z,9.40
2019-02-27T16:06:39.902Z,13.60
2019-02-27T16:09:12.377Z,10.73
2019-02-27T16:11:43.926Z,13.53
2019-02-27T16:14:15.195Z,15.03
2019-02-27T16:16:47.628Z,12.17
2019-02-27T16:19:20.281Z,9.97
2019-02-27T16:21:56.832Z,12.43
2019-02-27T16:24:24.842Z,9.50
2019-02-27T16:27:00.871Z,10.70
2019-02-27T16:29:31.084Z,10.30
2019-02-27T16:32:02.403Z,8.97
2019-02-27T16:34:34.134Z,10.80
2019-02-27T16:37:05.841Z,10.20
2019-02-27T16:39:41.391Z,10.90
2019-02-27T16:42:10.615Z,9.70
2019-02-27T16:44:42.128Z,23.20
2019-02-27T16:47:15.494Z,9.67
2019-02-27T16:49:47.272Z,12.37
2019-02-27T16:52:19.643Z,9.30
2019-02-27T16:54:51.231Z,11.87
2019-02-27T16:57:24.496Z,11.50
2019-02-27T16:59:56.378Z,11.53
2019-02-27T17:02:27.769Z,9.17
2019-02-27T17:04:59.206Z,8.17
2019-02-27T17:07:34.086Z,9.27
2019-02-27T17:10:07.393Z,17.30
2019-02-27T17:12:40.873Z,9.10
2019-02-27T17:15:11.955Z,13.33
2019-02-27T17:18:03.457Z,12.03
2019-02-27T17:20:34.872Z,7.80
2019-02-27T17:23:10.374Z,8.63
2019-02-27T17:25:39.544Z,10.37
2019-02-27T17:28:11.199Z,10.27
2019-02-27T17:30:42.691Z,9.80
2019-02-27T17:33:15.784Z,12.60
2019-02-27T17:35:47.262Z,8.23
2019-02-27T17:38:19.211Z,9.83
2019-02-27T17:40:52.465Z,18.47
2019-02-27T17:43:28.563Z,18.70
2019-02-27T17:46:01.487Z,13.73
2019-02-27T17:48:33.108Z,13.43
2019-02-27T17:51:06.474Z,15.00
2019-02-27T17:53:37.478Z,11.97
2019-02-27T17:56:25.906Z,14.30
2019-02-27T17:59:08.566Z,13.30
2019-02-27T18:01:46.998Z,11.20
2019-02-27T18:04:22.918Z,18.93
2019-02-27T18:07:00.435Z,19.67
2019-02-27T18:09:30.552Z,20.63
2019-02-27T18:12:01.808Z,15.43
2019-02-27T18:14:33.211Z,14.50
2019-02-27T18:17:07.543Z,17.50
2019-02-27T18:19:39.050Z,15.03
2019-02-27T18:22:14.015Z,16.10
2019-02-27T18:24:43.530Z,15.53
2019-02-27T18:27:15.086Z,14.80
2019-02-27T18:29:46.492Z,16.40
2019-02-27T18:32:19.510Z,14.67
2019-02-27T18:34:54.225Z,16.13
2019-02-27T18:37:23.821Z,17.53
2019-02-27T18:39:55.121Z,16.20
2019-02-27T18:42:26.422Z,24.10
2019-02-27T18:44:57.809Z,23.13
2019-02-27T18:47:29.126Z,13.30
2019-02-27T18:50:00.471Z,18.23
2019-02-27T18:52:31.808Z,18.43
2019-02-27T18:55:06.903Z,19.70
2019-02-27T18:57:45.665Z,17.00
2019-02-27T19:00:21.142Z,16.10
2019-02-27T19:02:53.905Z,17.07
2019-02-27T19:05:25.323Z,24.43
2019-02-27T19:07:56.934Z,12.87
2019-02-27T19:10:28.473Z,18.50
2019-02-27T19:13:00.974Z,18.07
2019-02-27T19:15:37.011Z,13.37
2019-02-27T19:18:08.944Z,22.67
2019-02-27T19:20:40.755Z,21.17
2019-02-27T19:23:17.196Z,17.37
2019-02-27T19:25:45.792Z,15.20
2019-02-27T19:28:17.396Z,16.03
2019-02-27T19:30:48.815Z,14.97
2019-02-27T19:33:20.504Z,12.50
2019-02-27T19:35:55.843Z,17.53
2019-02-27T19:38:25.974Z,19.60
2019-02-27T19:41:01.308Z,18.27
2019-02-27T19:43:35.343Z,16.70
2019-02-27T19:46:12.723Z,18.93
2019-02-27T19:48:46.050Z,24.43
2019-02-27T19:51:20.199Z,17.90
2019-02-27T19:53:53.248Z,18.80
2019-02-27T19:56:24.943Z,17.10
2019-02-27T19:58:56.601Z,15.90
2019-02-27T20:01:28.474Z,13.90
2019-02-27T20:04:03.019Z,16.93
2019-02-27T20:06:38.906Z,13.67
2019-02-27T20:09:12.985Z,11.07
2019-02-27T20:11:45.494Z,15.93
2019-02-27T20:14:19.337Z,18.07
2019-02-27T20:16:55.218Z,17.60
2019-02-27T20:19:28.978Z,15.50
2019-02-27T20:22:00.321Z,15.53
2019-02-27T20:24:32.415Z,12.00
2019-02-27T20:27:05.010Z,17.90
2019-02-27T20:29:40.658Z,18.93
2019-02-27T20:32:11.143Z,13.43
2019-02-27T20:34:45.756Z,14.90
2019-02-27T20:37:17.350Z,22.23
2019-02-27T20:39:48.870Z,14.70
2019-02-27T20:42:22.158Z,15.10
2019-02-27T20:44:59.565Z,17.27
2019-02-27T20:47:30.981Z,23.80
2019-02-27T20:50:02.365Z,12.80
2019-02-27T20:52:36.425Z,16.47
2019-02-27T20:55:08.057Z,19.17
2019-02-27T20:57:39.530Z,12.93
2019-02-27T21:00:15.591Z,17.77
2019-02-27T21:02:46.978Z,17.90
2019-02-27T21:05:18.453Z,13.70
2019-02-27T21:07:49.826Z,20.33
2019-02-27T21:10:22.912Z,23.40
2019-02-27T21:12:54.516Z,16.60
2019-02-27T21:15:26.198Z,14.37
2019-02-27T21:17:58.496Z,23.50
2019-02-27T21:20:30.502Z,23.03
2019-02-27T21:23:01.954Z,17.27
2019-02-27T21:25:35.208Z,19.37
2019-02-27T21:28:08.085Z,21.90
2019-02-27T21:30:43.031Z,14.67
2019-02-27T21:33:14.420Z,20.17
2019-02-27T21:35:46.012Z,20.93
2019-02-27T21:38:17.411Z,21.40
2019-02-27T21:40:49.031Z,18.80
2019-02-27T21:43:25.715Z,16.37
2019-02-27T21:45:56.951Z,22.33
2019-02-27T21:48:28.517Z,21.27
2019-02-27T21:51:00.104Z,20.93
2019-02-27T21:53:31.451Z,18.00
2019-02-27T21:56:02.863Z,21.70
2019-02-27T21:58:34.304Z,17.67
2019-02-27T22:01:05.655Z,20.60
2019-02-27T22:03:38.396Z,23.83
2019-02-27T22:06:10.058Z,19.90
2019-02-27T22:08:44.578Z,20.43
2019-02-27T22:11:16.041Z,20.70
2019-02-27T22:13:47.445Z,20.40
2019-02-27T22:16:20.536Z,21.87
2019-02-27T22:18:51.845Z,24.03
2019-02-27T22:21:25.880Z,23.93
2019-02-27T22:23:57.335Z,29.23
2019-02-27T22:26:28.603Z,27.10
2019-02-27T22:28:59.917Z,22.27
2019-02-27T22:31:31.408Z,22.80
2019-02-27T22:34:02.650Z,29.50
2019-02-27T22:36:34.009Z,29.10
2019-02-27T22:39:05.562Z,27.97
2019-02-27T22:41:37.065Z,22.70
2019-02-27T22:44:08.619Z,24.43
2019-02-27T22:46:40.104Z,24.90
2019-02-27T22:49:11.385Z,28.70
2019-02-27T22:51:44.867Z,30.90
2019-02-27T22:54:15.706Z,22.60
2019-02-27T22:56:50.076Z,29.60
2019-02-27T22:59:20.098Z,31.33
2019-02-27T23:01:54.941Z,29.20
2019-02-27T23:04:29.981Z,28.07
2019-02-27T23:07:00.003Z,38.23
2019-02-27T23:09:31.690Z,33.57
2019-02-27T23:12:03.194Z,36.23
2019-02-27T23:14:34.602Z,31.97
2019-02-27T23:17:09.088Z,34.30
2019-02-27T23:19:40.616Z,33.10
2019-02-27T23:22:11.920Z,34.10
2019-02-27T23:24:43.879Z,31.60
2019-02-27T23:27:15.987Z,32.30
2019-02-27T23:29:47.309Z,29.23
2019-02-27T23:32:18.820Z,33.17
2019-02-27T23:34:50.211Z,37.07
2019-02-27T23:37:21.571Z,35.60
2019-02-27T23:39:53.227Z,29.67
2019-02-27T23:42:27.924Z,32.27
2019-02-27T23:44:57.579Z,36.50
2019-02-27T23:47:29.361Z,33.90
2019-02-27T23:50:02.248Z,28.20
2019-02-27T23:52:33.547Z,33.47
2019-02-27T23:55:07.138Z,32.20
2019-02-27T23:57:37.999Z,36.87
